Terminal Aerodrome Forecast
Issued by NWS

Current Version | Previous Version | Graphics & Text | Print | Product List | Glossary On
Versions: 1 2 3 4 5 6 7 8 9 10 11 12 13 14 15 16 17 18 19
000
FTUS41 KILN 222103 AAA
TAFLUK
TAF AMD
KLUK 222103Z 2221/2318 23007KT P6SM VCTS BKN035CB
      TEMPO 2222/2224 4SM -TSRA OVC025CB
     FM230100 36004KT P6SM BKN100
     FM230700 01003KT 4SM BR SCT250
     FM230800 01002KT 1SM BR SCT001
     FM231000 01002KT 1/2SM FG OVC002
     FM231300 03006KT P6SM SCT250=

USA.gov is the U.S. government's official web portal to all federal, state and local government web resources and services.